createdAt,value
2017-10-28T00:01:44.572Z,5.93
2017-10-28T00:04:10.920Z,9.80
2017-10-28T00:06:38.736Z,13.00
2017-10-28T00:09:05.114Z,8.20
2017-10-28T00:11:31.459Z,9.23
2017-10-28T00:13:57.831Z,8.73
2017-10-28T00:16:25.636Z,12.73
2017-10-28T00:18:52.716Z,7.97
2017-10-28T00:21:19.044Z,13.47
2017-10-28T00:23:46.134Z,12.43
2017-10-28T00:26:13.990Z,11.50
2017-10-28T00:28:40.332Z,7.93
2017-10-28T00:31:12.862Z,12.07
2017-10-28T00:33:45.325Z,10.33
2017-10-28T00:36:13.494Z,12.10
2017-10-28T00:38:40.190Z,13.37
2017-10-28T00:41:06.533Z,18.93
2017-10-28T00:43:33.659Z,17.77
2017-10-28T00:46:06.221Z,14.40
2017-10-28T00:48:32.616Z,11.13
2017-10-28T00:50:58.982Z,7.73
2017-10-28T00:53:25.330Z,17.23
2017-10-28T00:55:51.748Z,14.43
2017-10-28T00:58:18.113Z,13.03
2017-10-28T01:00:44.485Z,14.63
2017-10-28T01:03:11.577Z,9.20
2017-10-28T01:05:37.976Z,11.50
2017-10-28T01:08:05.083Z,13.70
2017-10-28T01:10:31.458Z,9.10
2017-10-28T01:12:57.829Z,7.90
2017-10-28T01:15:24.183Z,10.13
2017-10-28T01:17:50.501Z,15.30
2017-10-28T01:20:17.657Z,11.30
2017-10-28T01:22:44.012Z,13.07
2017-10-28T01:25:10.385Z,13.43
2017-10-28T01:27:36.765Z,11.43
2017-10-28T01:30:03.162Z,9.93
2017-10-28T01:32:30.271Z,12.07
2017-10-28T01:34:56.629Z,17.57
2017-10-28T01:37:23.009Z,12.57
2017-10-28T01:39:49.384Z,16.13
2017-10-28T01:42:15.780Z,17.73
2017-10-28T01:44:42.914Z,11.40
2017-10-28T01:47:09.290Z,11.63
2017-10-28T01:49:35.661Z,11.80
2017-10-28T01:52:02.029Z,8.13
2017-10-28T01:54:28.372Z,8.07
2017-10-28T01:56:54.803Z,11.03
2017-10-28T01:59:21.168Z,7.30
2017-10-28T02:01:47.513Z,19.57
2017-10-28T02:04:13.934Z,11.53
2017-10-28T02:06:40.302Z,6.73
2017-10-28T02:09:07.469Z,10.33
2017-10-28T02:11:33.870Z,8.03
2017-10-28T02:14:00.236Z,8.37
2017-10-28T02:16:26.629Z,14.27
2017-10-28T02:18:53.752Z,13.90
2017-10-28T02:21:20.101Z,11.40
2017-10-28T02:23:46.474Z,10.20
2017-10-28T02:26:12.865Z,14.30
2017-10-28T02:28:40.005Z,17.53
2017-10-28T02:31:07.121Z,8.00
2017-10-28T02:33:33.473Z,11.80
2017-10-28T02:36:01.305Z,17.43
2017-10-28T02:38:28.470Z,22.63
2017-10-28T02:40:54.816Z,8.43
2017-10-28T02:43:22.668Z,12.47
2017-10-28T02:45:49.044Z,13.30
2017-10-28T02:48:16.190Z,14.13
2017-10-28T02:50:42.562Z,8.53
2017-10-28T02:53:08.916Z,17.83
2017-10-28T02:55:35.314Z,10.70
2017-10-28T02:58:01.685Z,18.27
2017-10-28T03:00:29.589Z,9.70
2017-10-28T03:02:56.745Z,19.50
2017-10-28T03:05:23.908Z,15.77
2017-10-28T03:07:51.058Z,12.53
2017-10-28T03:10:17.499Z,19.07
2017-10-28T03:12:43.905Z,15.90
2017-10-28T03:15:10.281Z,13.97
2017-10-28T03:17:36.664Z,8.60
2017-10-28T03:20:03.041Z,14.30
2017-10-28T03:22:29.431Z,26.43
2017-10-28T03:24:55.804Z,11.53
2017-10-28T03:27:22.216Z,16.93
2017-10-28T03:29:48.568Z,19.07
2017-10-28T03:32:14.945Z,14.43
2017-10-28T03:34:41.332Z,16.60
2017-10-28T03:37:09.171Z,18.83
2017-10-28T03:39:35.546Z,12.37
2017-10-28T03:42:01.896Z,20.60
2017-10-28T03:44:28.256Z,10.87
2017-10-28T03:46:55.366Z,15.30
2017-10-28T03:49:21.722Z,21.10
2017-10-28T03:51:48.832Z,12.60
2017-10-28T03:54:15.255Z,21.40
2017-10-28T03:56:43.091Z,16.70
2017-10-28T03:59:09.436Z,15.90
2017-10-28T04:01:35.816Z,22.57
2017-10-28T04:04:02.959Z,15.40
2017-10-28T04:06:29.323Z,13.27
2017-10-28T04:08:55.675Z,28.87
2017-10-28T04:11:22.792Z,12.10
2017-10-28T04:13:49.144Z,18.87
2017-10-28T04:16:16.302Z,12.97
2017-10-28T04:18:42.645Z,13.83
2017-10-28T04:21:08.983Z,13.60
2017-10-28T04:23:36.152Z,11.33
2017-10-28T04:26:02.487Z,25.50
2017-10-28T04:28:28.904Z,16.50
2017-10-28T04:30:55.269Z,32.53
2017-10-28T04:33:21.669Z,23.47
2017-10-28T04:35:48.786Z,21.13
2017-10-28T04:38:15.181Z,12.43
2017-10-28T04:40:42.314Z,14.50
2017-10-28T04:43:08.691Z,18.60
2017-10-28T04:45:35.142Z,14.87
2017-10-28T04:48:02.254Z,19.60
2017-10-28T04:50:28.628Z,24.27
2017-10-28T04:52:55.754Z,13.17
2017-10-28T04:55:22.149Z,13.23
2017-10-28T04:57:48.529Z,18.20
2017-10-28T05:00:14.941Z,20.43
2017-10-28T05:02:41.362Z,15.97
2017-10-28T05:05:07.812Z,10.97
2017-10-28T05:07:34.953Z,17.80
2017-10-28T05:10:01.500Z,21.30
2017-10-28T05:12:27.911Z,14.70
2017-10-28T05:14:54.304Z,23.73
2017-10-28T05:17:20.709Z,11.17
2017-10-28T05:19:47.255Z,16.37
2017-10-28T05:22:13.676Z,12.53
2017-10-28T05:24:40.061Z,14.37
2017-10-28T05:27:06.475Z,13.00
2017-10-28T05:29:32.889Z,15.07
2017-10-28T05:31:59.281Z,11.77
2017-10-28T05:34:25.658Z,17.23
2017-10-28T05:36:52.061Z,14.17
2017-10-28T05:39:18.464Z,17.90
2017-10-28T05:41:44.893Z,14.83
2017-10-28T05:44:12.033Z,14.57
2017-10-28T05:46:38.458Z,13.00
2017-10-28T05:49:04.881Z,17.27
2017-10-28T05:51:31.289Z,12.07
2017-10-28T05:53:57.762Z,21.60
2017-10-28T05:56:25.735Z,18.97
2017-10-28T05:58:54.056Z,15.93
2017-10-28T06:01:20.479Z,18.20
2017-10-28T06:03:47.044Z,10.70
2017-10-28T06:06:14.370Z,13.80
2017-10-28T06:08:40.877Z,14.33
2017-10-28T06:11:07.283Z,10.50
2017-10-28T06:13:34.526Z,15.57
2017-10-28T06:16:01.774Z,10.07
2017-10-28T06:18:28.257Z,14.50
2017-10-28T06:20:54.686Z,14.10
2017-10-28T06:23:21.869Z,12.77
2017-10-28T06:25:48.389Z,12.20
2017-10-28T06:28:15.581Z,10.87
2017-10-28T06:30:42.021Z,14.17
2017-10-28T06:33:08.460Z,9.67
2017-10-28T06:35:35.665Z,15.80
2017-10-28T06:38:02.382Z,14.70
2017-10-28T06:40:28.855Z,16.23
2017-10-28T06:42:55.273Z,11.03
2017-10-28T06:45:21.725Z,14.20
2017-10-28T06:47:48.189Z,12.10
2017-10-28T06:50:15.560Z,18.23
2017-10-28T06:52:42.011Z,17.90
2017-10-28T06:55:08.451Z,12.07
2017-10-28T06:57:34.875Z,16.43
2017-10-28T07:00:03.306Z,11.33
2017-10-28T07:02:29.732Z,9.77
2017-10-28T07:04:56.184Z,15.47
2017-10-28T07:07:22.597Z,9.87
2017-10-28T07:09:49.102Z,12.00
2017-10-28T07:12:16.623Z,9.50
2017-10-28T07:14:47.328Z,14.00
2017-10-28T07:17:14.635Z,17.37
2017-10-28T07:19:41.419Z,16.03
2017-10-28T07:22:07.861Z,15.50
2017-10-28T07:24:34.312Z,16.93
2017-10-28T07:27:01.505Z,11.57
2017-10-28T07:29:27.913Z,13.03
2017-10-28T07:31:57.853Z,18.73
2017-10-28T07:34:25.831Z,13.50
2017-10-28T07:36:56.292Z,10.27
2017-10-28T07:39:22.857Z,9.47
2017-10-28T07:41:49.323Z,11.17
2017-10-28T07:44:16.545Z,11.03
2017-10-28T07:46:43.178Z,17.77
2017-10-28T07:49:09.612Z,13.07
2017-10-28T07:51:36.059Z,11.03
2017-10-28T07:54:02.607Z,14.20
2017-10-28T07:56:29.554Z,9.20
2017-10-28T07:58:55.969Z,17.00
2017-10-28T08:01:22.449Z,20.23
2017-10-28T08:03:55.301Z,12.57
2017-10-28T08:06:22.026Z,9.73
2017-10-28T08:08:51.114Z,11.73
2017-10-28T08:11:18.084Z,12.73
2017-10-28T08:13:45.592Z,12.30
2017-10-28T08:16:12.070Z,13.37
2017-10-28T08:18:39.609Z,16.90
2017-10-28T08:21:06.101Z,15.90
2017-10-28T08:23:32.522Z,13.90
2017-10-28T08:25:59.857Z,14.63
2017-10-28T08:28:27.000Z,12.47
2017-10-28T08:30:53.422Z,14.73
2017-10-28T08:33:19.826Z,12.00
2017-10-28T08:35:46.212Z,10.07
2017-10-28T08:38:12.705Z,13.77
2017-10-28T08:40:39.154Z,15.03
2017-10-28T08:43:05.643Z,11.27
2017-10-28T08:45:32.810Z,25.13
2017-10-28T08:47:59.979Z,14.77
2017-10-28T08:50:27.143Z,20.07
2017-10-28T08:52:53.596Z,12.50
2017-10-28T08:55:22.930Z,12.43
2017-10-28T08:57:49.575Z,16.67
2017-10-28T09:00:16.053Z,20.30
2017-10-28T09:02:43.235Z,13.27
2017-10-28T09:05:09.670Z,20.67
2017-10-28T09:07:36.852Z,13.13
2017-10-28T09:10:03.318Z,12.43
2017-10-28T09:12:29.788Z,11.20
2017-10-28T09:14:56.277Z,13.53
2017-10-28T09:17:25.774Z,13.10
2017-10-28T09:19:52.198Z,17.90
2017-10-28T09:22:18.682Z,17.73
2017-10-28T09:24:45.113Z,19.90
2017-10-28T09:27:11.825Z,11.77
2017-10-28T09:29:39.670Z,12.23
2017-10-28T09:32:06.133Z,18.43
2017-10-28T09:34:32.537Z,12.50
2017-10-28T09:36:58.969Z,12.83
2017-10-28T09:39:26.125Z,13.70
2017-10-28T09:41:52.508Z,12.23
2017-10-28T09:44:19.175Z,23.60
2017-10-28T09:46:45.565Z,12.87
2017-10-28T09:49:11.957Z,11.50
2017-10-28T09:51:38.332Z,12.77
2017-10-28T09:54:04.769Z,8.90
2017-10-28T09:56:31.184Z,13.20
2017-10-28T09:58:57.641Z,12.37
2017-10-28T10:01:24.816Z,16.97
2017-10-28T10:03:51.297Z,13.90
2017-10-28T10:06:17.799Z,11.63
2017-10-28T10:08:44.948Z,14.60
2017-10-28T10:11:11.364Z,10.27
2017-10-28T10:13:37.868Z,18.63
2017-10-28T10:16:04.347Z,16.50
2017-10-28T10:18:30.787Z,15.60
2017-10-28T10:20:57.302Z,12.17
2017-10-28T10:23:26.808Z,22.60
2017-10-28T10:25:53.284Z,17.63
2017-10-28T10:28:19.835Z,17.50
2017-10-28T10:30:47.047Z,9.30
2017-10-28T10:33:13.468Z,10.97
2017-10-28T10:35:39.939Z,16.37
2017-10-28T10:38:06.496Z,12.93
2017-10-28T10:40:33.391Z,16.90
2017-10-28T10:42:59.891Z,8.60
2017-10-28T10:45:26.989Z,10.67
2017-10-28T10:47:53.852Z,10.80
2017-10-28T10:50:22.021Z,11.93
2017-10-28T10:52:49.713Z,14.23
2017-10-28T10:55:16.510Z,13.53
2017-10-28T10:57:44.762Z,14.50
2017-10-28T11:00:11.294Z,8.63
2017-10-28T11:02:37.736Z,15.50
2017-10-28T11:05:04.204Z,7.77
2017-10-28T11:07:31.651Z,12.13
2017-10-28T11:10:05.061Z,20.60
2017-10-28T11:12:31.682Z,13.17
2017-10-28T11:14:58.158Z,24.90
2017-10-28T11:17:24.563Z,13.53
2017-10-28T11:19:51.772Z,11.40
2017-10-28T11:22:18.165Z,14.50
2017-10-28T11:24:44.632Z,16.47
2017-10-28T11:27:11.065Z,14.90
2017-10-28T11:29:37.513Z,10.53
2017-10-28T11:32:03.933Z,23.17
2017-10-28T11:34:30.457Z,13.03
2017-10-28T11:36:56.916Z,16.13
2017-10-28T11:39:23.377Z,15.77
2017-10-28T11:41:49.797Z,11.63
2017-10-28T11:44:16.208Z,13.73
2017-10-28T11:46:42.642Z,10.53
2017-10-28T11:49:09.053Z,9.57
2017-10-28T11:51:35.487Z,18.83
2017-10-28T11:54:01.998Z,13.53
2017-10-28T11:56:28.441Z,16.73
2017-10-28T11:58:54.930Z,11.50
2017-10-28T12:01:21.401Z,18.73
2017-10-28T12:03:47.815Z,12.23
2017-10-28T12:06:14.289Z,9.53
2017-10-28T12:08:40.728Z,10.00
2017-10-28T12:11:07.928Z,15.33
2017-10-28T12:13:34.404Z,19.20
2017-10-28T12:16:00.928Z,15.83
2017-10-28T12:18:28.118Z,15.43
2017-10-28T12:20:54.589Z,14.07
2017-10-28T12:23:21.028Z,18.70
2017-10-28T12:25:47.528Z,13.10
2017-10-28T12:28:14.029Z,14.27
2017-10-28T12:30:43.266Z,13.80
2017-10-28T12:33:10.575Z,10.63
2017-10-28T12:35:37.084Z,14.40
2017-10-28T12:38:04.319Z,10.23
2017-10-28T12:40:30.829Z,10.97
2017-10-28T12:42:57.996Z,15.20
2017-10-28T12:45:26.200Z,8.60
2017-10-28T12:47:53.958Z,17.23
2017-10-28T12:50:28.371Z,12.87
2017-10-28T12:52:55.089Z,11.43
2017-10-28T12:55:22.298Z,11.53
2017-10-28T12:57:55.151Z,12.03
2017-10-28T13:00:22.487Z,13.60
2017-10-28T13:02:49.653Z,11.10
2017-10-28T13:05:16.851Z,12.80
2017-10-28T13:07:43.290Z,13.03
2017-10-28T13:10:10.520Z,13.87
2017-10-28T13:12:36.995Z,7.83
2017-10-28T13:15:04.069Z,11.23
2017-10-28T13:17:30.711Z,9.70
2017-10-28T13:19:59.078Z,11.93
2017-10-28T13:22:27.683Z,11.30
2017-10-28T13:24:54.239Z,20.30
2017-10-28T13:27:20.656Z,7.77
2017-10-28T13:29:47.205Z,10.43
2017-10-28T13:32:13.867Z,11.93
2017-10-28T13:34:41.275Z,12.73
2017-10-28T13:37:09.520Z,19.70
2017-10-28T13:39:35.897Z,9.97
2017-10-28T13:42:02.373Z,8.40
2017-10-28T13:44:29.609Z,8.20
2017-10-28T13:46:57.029Z,9.20
2017-10-28T13:49:23.487Z,12.77
2017-10-28T13:51:52.835Z,18.20
2017-10-28T13:54:22.582Z,13.87
2017-10-28T13:56:50.282Z,15.23
2017-10-28T13:59:17.246Z,11.37
2017-10-28T14:01:43.725Z,10.60
2017-10-28T14:04:10.877Z,11.70
2017-10-28T14:06:37.800Z,25.07
2017-10-28T14:09:04.250Z,14.60
2017-10-28T14:11:33.483Z,10.57
2017-10-28T14:14:00.986Z,16.30
2017-10-28T14:16:27.532Z,20.63
2017-10-28T14:18:54.601Z,12.00
2017-10-28T14:21:21.040Z,14.17
2017-10-28T14:23:47.453Z,11.97
2017-10-28T14:26:13.921Z,11.77
2017-10-28T14:28:40.354Z,9.17
2017-10-28T14:31:06.757Z,14.07
2017-10-28T14:33:33.234Z,10.90
2017-10-28T14:36:00.420Z,5.90
2017-10-28T14:38:27.594Z,15.63
2017-10-28T14:40:54.101Z,9.60
2017-10-28T14:43:20.542Z,12.43
2017-10-28T14:45:47.000Z,20.23
2017-10-28T14:48:13.465Z,13.20
2017-10-28T14:50:39.892Z,12.37
2017-10-28T14:53:06.330Z,13.27
2017-10-28T14:55:32.772Z,12.40
2017-10-28T14:57:59.203Z,15.17
2017-10-28T15:00:25.705Z,14.37
2017-10-28T15:02:52.172Z,14.50
2017-10-28T15:05:18.622Z,18.97
2017-10-28T15:07:45.528Z,14.50
2017-10-28T15:10:12.644Z,10.67
2017-10-28T15:12:39.100Z,16.50
2017-10-28T15:15:06.160Z,11.20
2017-10-28T15:17:33.097Z,10.23
2017-10-28T15:20:01.002Z,17.47
2017-10-28T15:22:28.793Z,10.53
2017-10-28T15:24:56.852Z,14.37
2017-10-28T15:27:24.046Z,15.70
2017-10-28T15:29:50.584Z,15.13
2017-10-28T15:32:17.053Z,21.23
2017-10-28T15:34:44.194Z,10.90
2017-10-28T15:37:10.666Z,15.13
2017-10-28T15:39:37.073Z,15.00
2017-10-28T15:42:03.560Z,13.67
2017-10-28T15:44:29.960Z,15.73
2017-10-28T15:46:56.469Z,22.57
2017-10-28T15:49:23.707Z,11.60
2017-10-28T15:51:52.550Z,27.00
2017-10-28T15:54:21.001Z,13.40
2017-10-28T15:56:47.705Z,13.17
2017-10-28T15:59:14.168Z,9.93
2017-10-28T16:01:40.598Z,16.63
2017-10-28T16:04:07.997Z,14.30
2017-10-28T16:06:36.012Z,20.73
2017-10-28T16:09:02.770Z,17.50
2017-10-28T16:11:29.313Z,18.10
2017-10-28T16:13:57.180Z,23.20
2017-10-28T16:16:25.426Z,21.70
2017-10-28T16:18:52.119Z,16.17
2017-10-28T16:21:18.577Z,12.07
2017-10-28T16:23:45.133Z,18.27
2017-10-28T16:26:12.401Z,15.30
2017-10-28T16:28:39.296Z,15.47
2017-10-28T16:31:05.966Z,14.33
2017-10-28T16:33:32.380Z,15.20
2017-10-28T16:35:58.757Z,22.27
2017-10-28T16:38:26.169Z,18.90
2017-10-28T16:40:52.562Z,20.00
2017-10-28T16:43:18.978Z,17.47
2017-10-28T16:45:46.137Z,24.53
2017-10-28T16:48:12.501Z,23.03
2017-10-28T16:50:38.936Z,17.80
2017-10-28T16:53:06.217Z,22.83
2017-10-28T16:55:32.662Z,24.43
2017-10-28T16:57:59.068Z,25.87
2017-10-28T17:00:25.422Z,24.90
2017-10-28T17:02:52.544Z,22.10
2017-10-28T17:05:18.924Z,21.80
2017-10-28T17:07:46.053Z,26.10
2017-10-28T17:10:12.404Z,22.97
2017-10-28T17:12:38.800Z,26.23
2017-10-28T17:15:05.153Z,25.60
2017-10-28T17:17:31.545Z,23.90
2017-10-28T17:19:57.873Z,31.80
2017-10-28T17:22:24.225Z,26.57
2017-10-28T17:24:50.589Z,20.57
2017-10-28T17:27:17.680Z,20.70
2017-10-28T17:29:44.086Z,24.17
2017-10-28T17:32:10.749Z,21.47
2017-10-28T17:34:37.871Z,30.40
2017-10-28T17:37:04.224Z,18.47
2017-10-28T17:39:30.601Z,23.33
2017-10-28T17:41:57.712Z,19.03
2017-10-28T17:44:24.097Z,28.37
2017-10-28T17:46:51.220Z,27.60
2017-10-28T17:49:17.573Z,23.40
2017-10-28T17:51:43.945Z,20.17
2017-10-28T17:54:10.333Z,22.97
2017-10-28T17:56:36.721Z,23.60
2017-10-28T17:59:03.093Z,20.00
2017-10-28T18:01:30.209Z,19.10
2017-10-28T18:03:56.549Z,18.13
2017-10-28T18:06:22.932Z,19.97
2017-10-28T18:08:49.273Z,24.37
2017-10-28T18:11:15.700Z,20.80
2017-10-28T18:13:42.102Z,16.70
2017-10-28T18:16:08.476Z,19.47
2017-10-28T18:18:34.846Z,20.93
2017-10-28T18:21:01.978Z,23.67
2017-10-28T18:23:28.347Z,22.27
2017-10-28T18:25:54.728Z,26.97
2017-10-28T18:28:21.105Z,29.70
2017-10-28T18:30:47.490Z,25.57
2017-10-28T18:33:14.841Z,28.67
2017-10-28T18:35:41.944Z,27.37
2017-10-28T18:38:08.408Z,36.00
2017-10-28T18:40:34.761Z,29.47
2017-10-28T18:43:01.141Z,35.03
2017-10-28T18:45:28.239Z,31.53
2017-10-28T18:47:54.605Z,32.70
2017-10-28T18:50:20.977Z,34.57
2017-10-28T18:52:48.101Z,34.20
2017-10-28T18:55:14.453Z,30.53
2017-10-28T18:57:40.854Z,31.93
2017-10-28T19:00:07.229Z,33.23
2017-10-28T19:02:33.624Z,37.23
2017-10-28T19:05:00.733Z,34.70
2017-10-28T19:07:27.105Z,33.60
2017-10-28T19:09:53.489Z,30.97
2017-10-28T19:12:19.881Z,28.90
2017-10-28T19:14:46.297Z,31.30
2017-10-28T19:17:12.653Z,33.50
2017-10-28T19:19:39.037Z,33.50
2017-10-28T19:22:05.432Z,27.70
2017-10-28T19:24:31.837Z,26.30
2017-10-28T19:26:59.045Z,29.73
2017-10-28T19:29:25.392Z,31.60
2017-10-28T19:31:51.756Z,32.27
2017-10-28T19:34:18.126Z,36.90
2017-10-28T19:36:45.218Z,32.37
2017-10-28T19:39:11.565Z,37.70
2017-10-28T19:41:37.929Z,42.57
2017-10-28T19:44:04.276Z,48.87
2017-10-28T19:46:30.642Z,42.97
2017-10-28T19:48:57.788Z,42.07
2017-10-28T19:51:24.181Z,50.67
2017-10-28T19:53:50.553Z,49.53
2017-10-28T19:56:16.964Z,46.30
2017-10-28T19:58:43.338Z,42.20
2017-10-28T20:01:09.737Z,48.83
2017-10-28T20:03:36.861Z,46.70
2017-10-28T20:06:04.745Z,46.40
2017-10-28T20:08:31.116Z,53.07
2017-10-28T20:10:57.482Z,45.80
2017-10-28T20:13:24.353Z,42.03
2017-10-28T20:15:50.744Z,47.53
2017-10-28T20:18:17.117Z,45.30
2017-10-28T20:20:44.214Z,45.87
2017-10-28T20:23:10.580Z,50.30
2017-10-28T20:25:36.940Z,45.70
2017-10-28T20:28:04.061Z,48.43
2017-10-28T20:30:30.413Z,48.13
2017-10-28T20:32:57.558Z,41.23
2017-10-28T20:35:23.928Z,45.53
2017-10-28T20:37:50.302Z,44.70
2017-10-28T20:40:16.686Z,34.83
2017-10-28T20:42:43.057Z,37.47
2017-10-28T20:45:09.429Z,44.90
2017-10-28T20:47:36.524Z,39.17
2017-10-28T20:50:02.908Z,38.70
2017-10-28T20:52:30.024Z,29.07
2017-10-28T20:54:56.431Z,33.37
2017-10-28T20:57:22.817Z,34.03
2017-10-28T20:59:49.200Z,35.70
2017-10-28T21:02:16.317Z,36.37
2017-10-28T21:04:42.710Z,34.83
2017-10-28T21:07:09.057Z,36.40
2017-10-28T21:09:35.489Z,43.20
2017-10-28T21:12:01.852Z,36.30
2017-10-28T21:14:29.697Z,40.40
2017-10-28T21:16:56.129Z,31.93
2017-10-28T21:19:23.317Z,34.03
2017-10-28T21:21:49.701Z,37.10
2017-10-28T21:24:16.781Z,36.80
2017-10-28T21:26:43.153Z,28.63
2017-10-28T21:29:09.506Z,36.60
2017-10-28T21:31:35.897Z,41.53
2017-10-28T21:34:02.280Z,41.20
2017-10-28T21:36:28.848Z,29.67
2017-10-28T21:38:55.188Z,43.73
2017-10-28T21:41:21.565Z,45.07
2017-10-28T21:43:47.925Z,43.77
2017-10-28T21:46:14.309Z,57.03
2017-10-28T21:48:41.439Z,50.00
2017-10-28T21:51:07.778Z,57.77
2017-10-28T21:53:34.237Z,59.80
2017-10-28T21:56:00.585Z,53.57
2017-10-28T21:58:26.957Z,48.53
2017-10-28T22:00:53.322Z,54.70
2017-10-28T22:03:20.441Z,59.20
2017-10-28T22:05:46.788Z,58.30
2017-10-28T22:08:13.149Z,61.20
2017-10-28T22:10:39.505Z,57.97
2017-10-28T22:13:05.861Z,54.83
2017-10-28T22:15:32.213Z,57.50
2017-10-28T22:17:59.313Z,55.60
2017-10-28T22:20:25.652Z,54.63
2017-10-28T22:22:52.017Z,55.80
2017-10-28T22:25:18.387Z,51.77
2017-10-28T22:27:45.497Z,48.77
2017-10-28T22:30:11.878Z,68.00
2017-10-28T22:32:38.240Z,66.07
2017-10-28T22:35:05.333Z,61.43
2017-10-28T22:37:31.665Z,69.37
2017-10-28T22:39:58.071Z,59.53
2017-10-28T22:42:24.457Z,48.20
2017-10-28T22:44:50.829Z,53.23
2017-10-28T22:47:17.185Z,57.90
2017-10-28T22:49:44.349Z,62.73
2017-10-28T22:52:10.693Z,55.27
2017-10-28T22:54:37.136Z,54.50
2017-10-28T22:57:04.257Z,56.53
2017-10-28T22:59:30.633Z,53.47
2017-10-28T23:01:56.969Z,54.77
2017-10-28T23:04:23.367Z,56.43
2017-10-28T23:06:49.725Z,38.67
2017-10-28T23:09:16.090Z,37.33
2017-10-28T23:11:42.478Z,41.30
2017-10-28T23:14:09.574Z,31.50
2017-10-28T23:16:35.970Z,38.17
2017-10-28T23:19:02.317Z,41.43
2017-10-28T23:21:29.456Z,34.27
2017-10-28T23:23:55.825Z,42.70
2017-10-28T23:26:22.952Z,33.70
2017-10-28T23:28:49.301Z,26.33
2017-10-28T23:31:15.678Z,30.77
2017-10-28T23:33:42.778Z,34.27
2017-10-28T23:36:09.242Z,43.40
2017-10-28T23:38:36.603Z,19.80
2017-10-28T23:41:02.960Z,19.27
2017-10-28T23:43:29.324Z,34.00
2017-10-28T23:45:55.676Z,24.57
2017-10-28T23:48:22.786Z,19.57
2017-10-28T23:50:49.127Z,20.50
2017-10-28T23:53:15.517Z,27.67
2017-10-28T23:55:41.861Z,19.20
2017-10-28T23:58:08.973Z,26.90
